sensor_id;sensor_type;location;lat;lon;timestamp;P1;durP1;ratioP1;P2;durP2;ratioP2
60492;SDS011;46341;51.290;-2.474;2023-05-10T00:00:15;28.05;;;16.70;;
60492;SDS011;46341;51.290;-2.474;2023-05-10T00:02:42;29.75;;;16.58;;
60492;SDS011;46341;51.290;-2.474;2023-05-10T00:05:08;28.63;;;17.95;;
60492;SDS011;46341;51.290;-2.474;2023-05-10T00:07:35;33.88;;;19.92;;
60492;SDS011;46341;51.290;-2.474;2023-05-10T00:10:01;38.63;;;20.75;;
60492;SDS011;46341;51.290;-2.474;2023-05-10T00:12:28;31.50;;;20.13;;
60492;SDS011;46341;51.290;-2.474;2023-05-10T00:14:54;31.52;;;19.92;;
60492;SDS011;46341;51.290;-2.474;2023-05-10T00:17:21;34.92;;;21.25;;
60492;SDS011;46341;51.290;-2.474;2023-05-10T00:19:47;28.27;;;20.00;;
60492;SDS011;46341;51.290;-2.474;2023-05-10T00:22:14;31.70;;;18.45;;
60492;SDS011;46341;51.290;-2.474;2023-05-10T00:24:40;30.77;;;18.75;;
60492;SDS011;46341;51.290;-2.474;2023-05-10T00:27:07;31.38;;;17.50;;
60492;SDS011;46341;51.290;-2.474;2023-05-10T00:29:33;26.60;;;17.33;;
60492;SDS011;46341;51.290;-2.474;2023-05-10T00:32:00;30.58;;;17.15;;
60492;SDS011;46341;51.290;-2.474;2023-05-10T00:34:26;29.55;;;15.70;;
60492;SDS011;46341;51.290;-2.474;2023-05-10T00:36:53;27.55;;;15.23;;
60492;SDS011;46341;51.290;-2.474;2023-05-10T00:39:19;25.65;;;15.18;;
60492;SDS011;46341;51.290;-2.474;2023-05-10T00:41:46;27.30;;;15.20;;
60492;SDS011;46341;51.290;-2.474;2023-05-10T00:44:12;26.40;;;14.88;;
60492;SDS011;46341;51.290;-2.474;2023-05-10T00:46:38;27.25;;;13.30;;
60492;SDS011;46341;51.290;-2.474;2023-05-10T00:49:05;23.10;;;13.30;;
60492;SDS011;46341;51.290;-2.474;2023-05-10T00:51:32;23.23;;;12.73;;
60492;SDS011;46341;51.290;-2.474;2023-05-10T00:53:58;21.00;;;10.95;;
60492;SDS011;46341;51.290;-2.474;2023-05-10T00:56:25;22.30;;;10.05;;
60492;SDS011;46341;51.290;-2.474;2023-05-10T00:58:51;24.77;;;10.13;;
60492;SDS011;46341;51.290;-2.474;2023-05-10T01:01:18;22.17;;;8.50;;
60492;SDS011;46341;51.290;-2.474;2023-05-10T01:03:45;18.27;;;7.22;;
60492;SDS011;46341;51.290;-2.474;2023-05-10T01:06:11;23.75;;;7.00;;
60492;SDS011;46341;51.290;-2.474;2023-05-10T01:08:38;20.02;;;6.15;;
60492;SDS011;46341;51.290;-2.474;2023-05-10T01:11:04;25.63;;;6.70;;
60492;SDS011;46341;51.290;-2.474;2023-05-10T01:13:32;15.70;;;6.72;;
60492;SDS011;46341;51.290;-2.474;2023-05-10T01:15:59;21.48;;;6.28;;
60492;SDS011;46341;51.290;-2.474;2023-05-10T01:18:33;18.23;;;7.15;;
60492;SDS011;46341;51.290;-2.474;2023-05-10T01:21:23;22.30;;;6.53;;
60492;SDS011;46341;51.290;-2.474;2023-05-10T01:34:10;14.50;;;4.88;;
60492;SDS011;46341;51.290;-2.474;2023-05-10T01:37:02;17.35;;;5.47;;
60492;SDS011;46341;51.290;-2.474;2023-05-10T01:42:10;15.25;;;5.53;;
60492;SDS011;46341;51.290;-2.474;2023-05-10T01:44:41;15.82;;;5.07;;
60492;SDS011;46341;51.290;-2.474;2023-05-10T01:47:10;19.50;;;5.40;;
60492;SDS011;46341;51.290;-2.474;2023-05-10T01:49:38;21.02;;;6.18;;
60492;SDS011;46341;51.290;-2.474;2023-05-10T01:52:09;15.20;;;6.20;;
60492;SDS011;46341;51.290;-2.474;2023-05-10T01:54:41;21.90;;;6.55;;
60492;SDS011;46341;51.290;-2.474;2023-05-10T01:57:08;18.08;;;6.43;;
60492;SDS011;46341;51.290;-2.474;2023-05-10T01:59:38;22.75;;;7.63;;
60492;SDS011;46341;51.290;-2.474;2023-05-10T02:02:07;20.98;;;7.68;;
60492;SDS011;46341;51.290;-2.474;2023-05-10T02:04:40;32.33;;;9.23;;
60492;SDS011;46341;51.290;-2.474;2023-05-10T02:07:08;27.13;;;10.52;;
60492;SDS011;46341;51.290;-2.474;2023-05-10T02:09:35;31.40;;;11.02;;
60492;SDS011;46341;51.290;-2.474;2023-05-10T02:12:02;28.77;;;10.45;;
60492;SDS011;46341;51.290;-2.474;2023-05-10T02:14:34;24.90;;;11.43;;
60492;SDS011;46341;51.290;-2.474;2023-05-10T02:17:05;26.23;;;10.95;;
60492;SDS011;46341;51.290;-2.474;2023-05-10T02:19:33;24.45;;;10.88;;
60492;SDS011;46341;51.290;-2.474;2023-05-10T02:22:00;23.97;;;10.03;;
60492;SDS011;46341;51.290;-2.474;2023-05-10T02:24:27;22.85;;;9.45;;
60492;SDS011;46341;51.290;-2.474;2023-05-10T02:26:54;23.92;;;10.43;;
60492;SDS011;46341;51.290;-2.474;2023-05-10T02:29:22;22.92;;;9.65;;
60492;SDS011;46341;51.290;-2.474;2023-05-10T02:31:49;24.10;;;10.43;;
60492;SDS011;46341;51.290;-2.474;2023-05-10T02:34:17;23.83;;;10.73;;
60492;SDS011;46341;51.290;-2.474;2023-05-10T02:36:44;23.35;;;10.77;;
60492;SDS011;46341;51.290;-2.474;2023-05-10T02:39:10;27.88;;;11.82;;
60492;SDS011;46341;51.290;-2.474;2023-05-10T02:41:42;26.63;;;10.80;;
60492;SDS011;46341;51.290;-2.474;2023-05-10T02:44:11;33.28;;;11.98;;
60492;SDS011;46341;51.290;-2.474;2023-05-10T02:46:38;27.75;;;11.52;;
60492;SDS011;46341;51.290;-2.474;2023-05-10T02:49:05;26.65;;;11.43;;
60492;SDS011;46341;51.290;-2.474;2023-05-10T02:51:32;28.33;;;11.50;;
60492;SDS011;46341;51.290;-2.474;2023-05-10T02:54:07;38.80;;;13.00;;
60492;SDS011;46341;51.290;-2.474;2023-05-10T02:56:35;27.48;;;11.80;;
60492;SDS011;46341;51.290;-2.474;2023-05-10T02:59:02;32.83;;;11.87;;
60492;SDS011;46341;51.290;-2.474;2023-05-10T03:01:28;30.25;;;11.38;;
60492;SDS011;46341;51.290;-2.474;2023-05-10T03:03:55;28.75;;;11.13;;
60492;SDS011;46341;51.290;-2.474;2023-05-10T03:06:22;38.15;;;10.90;;
60492;SDS011;46341;51.290;-2.474;2023-05-10T03:08:48;30.65;;;10.88;;
60492;SDS011;46341;51.290;-2.474;2023-05-10T03:11:28;28.55;;;10.57;;
60492;SDS011;46341;51.290;-2.474;2023-05-10T03:16:28;30.80;;;10.40;;
60492;SDS011;46341;51.290;-2.474;2023-05-10T03:19:05;24.98;;;9.35;;
60492;SDS011;46341;51.290;-2.474;2023-05-10T03:21:33;27.85;;;9.40;;
60492;SDS011;46341;51.290;-2.474;2023-05-10T03:24:07;27.80;;;8.80;;
60492;SDS011;46341;51.290;-2.474;2023-05-10T03:26:33;26.27;;;9.50;;
60492;SDS011;46341;51.290;-2.474;2023-05-10T03:29:01;28.52;;;11.35;;
60492;SDS011;46341;51.290;-2.474;2023-05-10T03:31:28;29.02;;;11.35;;
60492;SDS011;46341;51.290;-2.474;2023-05-10T03:33:54;36.15;;;12.40;;
60492;SDS011;46341;51.290;-2.474;2023-05-10T03:36:21;30.88;;;11.45;;
60492;SDS011;46341;51.290;-2.474;2023-05-10T03:38:47;28.13;;;11.73;;
60492;SDS011;46341;51.290;-2.474;2023-05-10T03:41:14;28.42;;;12.43;;
60492;SDS011;46341;51.290;-2.474;2023-05-10T03:43:40;30.50;;;12.13;;
60492;SDS011;46341;51.290;-2.474;2023-05-10T03:46:07;26.55;;;11.93;;
60492;SDS011;46341;51.290;-2.474;2023-05-10T03:48:33;25.95;;;11.57;;
60492;SDS011;46341;51.290;-2.474;2023-05-10T03:51:00;31.23;;;12.13;;
60492;SDS011;46341;51.290;-2.474;2023-05-10T03:53:26;37.35;;;12.85;;
60492;SDS011;46341;51.290;-2.474;2023-05-10T03:55:53;31.35;;;12.57;;
60492;SDS011;46341;51.290;-2.474;2023-05-10T03:58:19;31.77;;;11.82;;
60492;SDS011;46341;51.290;-2.474;2023-05-10T04:00:46;31.40;;;11.63;;
60492;SDS011;46341;51.290;-2.474;2023-05-10T04:03:12;36.25;;;13.00;;
60492;SDS011;46341;51.290;-2.474;2023-05-10T04:05:39;35.40;;;12.43;;
60492;SDS011;46341;51.290;-2.474;2023-05-10T04:08:05;34.45;;;12.18;;
60492;SDS011;46341;51.290;-2.474;2023-05-10T04:10:32;33.90;;;13.60;;
60492;SDS011;46341;51.290;-2.474;2023-05-10T04:12:58;30.42;;;13.48;;
60492;SDS011;46341;51.290;-2.474;2023-05-10T04:15:25;42.55;;;13.52;;
60492;SDS011;46341;51.290;-2.474;2023-05-10T04:17:51;35.88;;;13.63;;
60492;SDS011;46341;51.290;-2.474;2023-05-10T04:20:17;28.40;;;12.18;;
60492;SDS011;46341;51.290;-2.474;2023-05-10T04:22:44;36.85;;;13.60;;
60492;SDS011;46341;51.290;-2.474;2023-05-10T04:25:11;31.50;;;13.48;;
60492;SDS011;46341;51.290;-2.474;2023-05-10T04:27:37;29.77;;;12.38;;
60492;SDS011;46341;51.290;-2.474;2023-05-10T04:30:04;31.00;;;12.63;;
60492;SDS011;46341;51.290;-2.474;2023-05-10T04:32:30;32.30;;;13.00;;
60492;SDS011;46341;51.290;-2.474;2023-05-10T04:34:57;35.85;;;13.50;;
60492;SDS011;46341;51.290;-2.474;2023-05-10T04:37:24;32.80;;;13.57;;
60492;SDS011;46341;51.290;-2.474;2023-05-10T04:39:50;30.45;;;13.18;;
60492;SDS011;46341;51.290;-2.474;2023-05-10T04:42:17;39.17;;;14.52;;
60492;SDS011;46341;51.290;-2.474;2023-05-10T04:44:43;29.92;;;12.95;;
60492;SDS011;46341;51.290;-2.474;2023-05-10T04:47:10;33.33;;;14.57;;
60492;SDS011;46341;51.290;-2.474;2023-05-10T04:52:04;33.97;;;13.55;;
60492;SDS011;46341;51.290;-2.474;2023-05-10T04:54:30;33.20;;;13.70;;
60492;SDS011;46341;51.290;-2.474;2023-05-10T04:56:57;27.58;;;10.63;;
60492;SDS011;46341;51.290;-2.474;2023-05-10T04:59:23;23.75;;;9.07;;
60492;SDS011;46341;51.290;-2.474;2023-05-10T05:01:50;26.50;;;9.75;;
60492;SDS011;46341;51.290;-2.474;2023-05-10T05:04:16;23.45;;;8.50;;
60492;SDS011;46341;51.290;-2.474;2023-05-10T05:06:42;23.23;;;8.77;;
60492;SDS011;46341;51.290;-2.474;2023-05-10T05:09:09;24.30;;;8.52;;
60492;SDS011;46341;51.290;-2.474;2023-05-10T05:11:36;24.27;;;8.30;;
60492;SDS011;46341;51.290;-2.474;2023-05-10T05:14:02;20.58;;;7.72;;
60492;SDS011;46341;51.290;-2.474;2023-05-10T05:16:30;19.33;;;8.05;;
60492;SDS011;46341;51.290;-2.474;2023-05-10T05:18:56;27.55;;;7.63;;
60492;SDS011;46341;51.290;-2.474;2023-05-10T05:21:23;20.83;;;7.55;;
60492;SDS011;46341;51.290;-2.474;2023-05-10T05:23:50;20.35;;;7.85;;
60492;SDS011;46341;51.290;-2.474;2023-05-10T05:26:16;21.38;;;7.30;;
60492;SDS011;46341;51.290;-2.474;2023-05-10T05:28:42;20.70;;;7.20;;
60492;SDS011;46341;51.290;-2.474;2023-05-10T05:31:09;20.58;;;7.40;;
60492;SDS011;46341;51.290;-2.474;2023-05-10T05:33:36;19.83;;;7.07;;
60492;SDS011;46341;51.290;-2.474;2023-05-10T05:36:03;24.45;;;7.40;;
60492;SDS011;46341;51.290;-2.474;2023-05-10T05:38:29;21.95;;;7.18;;
60492;SDS011;46341;51.290;-2.474;2023-05-10T05:40:56;19.45;;;6.95;;
60492;SDS011;46341;51.290;-2.474;2023-05-10T05:43:22;20.05;;;6.97;;
60492;SDS011;46341;51.290;-2.474;2023-05-10T05:45:49;23.60;;;7.45;;
60492;SDS011;46341;51.290;-2.474;2023-05-10T05:48:15;23.20;;;6.03;;
60492;SDS011;46341;51.290;-2.474;2023-05-10T05:50:41;17.63;;;6.00;;
60492;SDS011;46341;51.290;-2.474;2023-05-10T05:53:08;17.77;;;5.25;;
60492;SDS011;46341;51.290;-2.474;2023-05-10T05:55:34;22.73;;;5.80;;
60492;SDS011;46341;51.290;-2.474;2023-05-10T05:58:01;23.33;;;5.47;;
60492;SDS011;46341;51.290;-2.474;2023-05-10T06:00:27;20.50;;;5.35;;
60492;SDS011;46341;51.290;-2.474;2023-05-10T06:02:54;18.25;;;5.47;;
60492;SDS011;46341;51.290;-2.474;2023-05-10T06:05:20;19.05;;;4.85;;
60492;SDS011;46341;51.290;-2.474;2023-05-10T06:07:47;19.45;;;4.93;;
60492;SDS011;46341;51.290;-2.474;2023-05-10T06:10:13;17.92;;;5.25;;
60492;SDS011;46341;51.290;-2.474;2023-05-10T06:12:39;19.63;;;4.97;;
60492;SDS011;46341;51.290;-2.474;2023-05-10T06:15:06;18.85;;;4.65;;
60492;SDS011;46341;51.290;-2.474;2023-05-10T06:17:33;20.70;;;4.20;;
60492;SDS011;46341;51.290;-2.474;2023-05-10T06:19:59;17.05;;;4.55;;
60492;SDS011;46341;51.290;-2.474;2023-05-10T06:22:26;18.83;;;5.32;;
60492;SDS011;46341;51.290;-2.474;2023-05-10T06:24:52;18.40;;;5.30;;
60492;SDS011;46341;51.290;-2.474;2023-05-10T06:27:18;17.60;;;4.85;;
60492;SDS011;46341;51.290;-2.474;2023-05-10T06:29:45;16.80;;;4.10;;
60492;SDS011;46341;51.290;-2.474;2023-05-10T06:32:11;15.25;;;4.38;;
60492;SDS011;46341;51.290;-2.474;2023-05-10T06:34:37;14.57;;;4.28;;
60492;SDS011;46341;51.290;-2.474;2023-05-10T06:37:04;18.48;;;4.10;;
60492;SDS011;46341;51.290;-2.474;2023-05-10T06:39:30;10.77;;;3.45;;
60492;SDS011;46341;51.290;-2.474;2023-05-10T06:41:57;12.07;;;3.45;;
60492;SDS011;46341;51.290;-2.474;2023-05-10T06:44:23;14.40;;;3.38;;
60492;SDS011;46341;51.290;-2.474;2023-05-10T06:46:49;14.75;;;3.03;;
60492;SDS011;46341;51.290;-2.474;2023-05-10T06:49:17;15.77;;;3.85;;
60492;SDS011;46341;51.290;-2.474;2023-05-10T06:51:43;12.05;;;3.22;;
60492;SDS011;46341;51.290;-2.474;2023-05-10T06:54:10;17.10;;;3.25;;
60492;SDS011;46341;51.290;-2.474;2023-05-10T06:56:36;12.25;;;2.85;;
60492;SDS011;46341;51.290;-2.474;2023-05-10T06:59:02;17.15;;;3.53;;
60492;SDS011;46341;51.290;-2.474;2023-05-10T07:01:29;12.63;;;2.70;;
60492;SDS011;46341;51.290;-2.474;2023-05-10T07:03:55;10.23;;;2.88;;
60492;SDS011;46341;51.290;-2.474;2023-05-10T07:06:22;14.27;;;3.42;;
60492;SDS011;46341;51.290;-2.474;2023-05-10T07:08:58;15.85;;;3.33;;
60492;SDS011;46341;51.290;-2.474;2023-05-10T07:11:24;13.35;;;3.45;;
60492;SDS011;46341;51.290;-2.474;2023-05-10T07:13:51;13.85;;;3.90;;
60492;SDS011;46341;51.290;-2.474;2023-05-10T07:16:17;17.27;;;3.45;;
60492;SDS011;46341;51.290;-2.474;2023-05-10T07:18:43;13.43;;;3.33;;
60492;SDS011;46341;51.290;-2.474;2023-05-10T07:21:10;14.40;;;2.92;;
60492;SDS011;46341;51.290;-2.474;2023-05-10T07:23:36;12.07;;;3.40;;
60492;SDS011;46341;51.290;-2.474;2023-05-10T07:26:03;11.88;;;3.15;;
60492;SDS011;46341;51.290;-2.474;2023-05-10T07:28:29;14.40;;;2.80;;
60492;SDS011;46341;51.290;-2.474;2023-05-10T07:30:56;11.57;;;2.58;;
60492;SDS011;46341;51.290;-2.474;2023-05-10T07:33:22;10.15;;;2.50;;
60492;SDS011;46341;51.290;-2.474;2023-05-10T07:35:49;12.23;;;2.78;;
60492;SDS011;46341;51.290;-2.474;2023-05-10T07:38:16;11.75;;;2.38;;
60492;SDS011;46341;51.290;-2.474;2023-05-10T07:40:43;9.70;;;1.90;;
60492;SDS011;46341;51.290;-2.474;2023-05-10T07:43:09;13.07;;;2.70;;
60492;SDS011;46341;51.290;-2.474;2023-05-10T07:45:36;12.70;;;2.70;;
60492;SDS011;46341;51.290;-2.474;2023-05-10T07:48:02;12.10;;;3.10;;
60492;SDS011;46341;51.290;-2.474;2023-05-10T07:50:29;12.50;;;3.88;;
60492;SDS011;46341;51.290;-2.474;2023-05-10T07:52:55;10.90;;;4.18;;
60492;SDS011;46341;51.290;-2.474;2023-05-10T07:55:22;11.70;;;4.30;;
60492;SDS011;46341;51.290;-2.474;2023-05-10T07:57:48;14.98;;;3.80;;
60492;SDS011;46341;51.290;-2.474;2023-05-10T08:00:16;10.67;;;3.47;;
60492;SDS011;46341;51.290;-2.474;2023-05-10T08:02:43;10.45;;;3.28;;
60492;SDS011;46341;51.290;-2.474;2023-05-10T08:05:09;10.75;;;3.90;;
60492;SDS011;46341;51.290;-2.474;2023-05-10T08:07:36;13.38;;;4.25;;
60492;SDS011;46341;51.290;-2.474;2023-05-10T08:10:03;13.40;;;3.60;;
60492;SDS011;46341;51.290;-2.474;2023-05-10T08:12:29;16.02;;;4.35;;
60492;SDS011;46341;51.290;-2.474;2023-05-10T08:14:56;16.45;;;4.18;;
60492;SDS011;46341;51.290;-2.474;2023-05-10T08:17:23;13.17;;;3.50;;
60492;SDS011;46341;51.290;-2.474;2023-05-10T08:19:50;12.80;;;3.78;;
60492;SDS011;46341;51.290;-2.474;2023-05-10T08:22:16;28.02;;;16.15;;
60492;SDS011;46341;51.290;-2.474;2023-05-10T08:24:43;14.50;;;5.47;;
60492;SDS011;46341;51.290;-2.474;2023-05-10T08:27:09;26.95;;;14.02;;
60492;SDS011;46341;51.290;-2.474;2023-05-10T08:29:37;17.58;;;7.30;;
60492;SDS011;46341;51.290;-2.474;2023-05-10T08:32:15;17.27;;;7.85;;
60492;SDS011;46341;51.290;-2.474;2023-05-10T08:34:41;22.35;;;7.95;;
60492;SDS011;46341;51.290;-2.474;2023-05-10T08:37:07;14.50;;;4.85;;
60492;SDS011;46341;51.290;-2.474;2023-05-10T08:39:34;17.08;;;4.50;;
60492;SDS011;46341;51.290;-2.474;2023-05-10T08:42:02;13.05;;;3.45;;
60492;SDS011;46341;51.290;-2.474;2023-05-10T08:44:32;9.45;;;3.08;;
60492;SDS011;46341;51.290;-2.474;2023-05-10T08:47:01;15.23;;;3.60;;
60492;SDS011;46341;51.290;-2.474;2023-05-10T08:49:28;14.57;;;3.50;;
60492;SDS011;46341;51.290;-2.474;2023-05-10T08:51:57;12.02;;;3.65;;
60492;SDS011;46341;51.290;-2.474;2023-05-10T08:54:23;16.57;;;4.77;;
60492;SDS011;46341;51.290;-2.474;2023-05-10T08:56:50;13.02;;;3.47;;
60492;SDS011;46341;51.290;-2.474;2023-05-10T08:59:16;15.95;;;3.17;;
60492;SDS011;46341;51.290;-2.474;2023-05-10T09:01:43;12.88;;;3.20;;
60492;SDS011;46341;51.290;-2.474;2023-05-10T09:04:10;15.38;;;3.75;;
60492;SDS011;46341;51.290;-2.474;2023-05-10T09:09:04;11.70;;;4.38;;
60492;SDS011;46341;51.290;-2.474;2023-05-10T09:11:31;11.87;;;3.10;;
60492;SDS011;46341;51.290;-2.474;2023-05-10T09:13:57;17.35;;;5.32;;
60492;SDS011;46341;51.290;-2.474;2023-05-10T09:16:24;9.90;;;3.70;;
60492;SDS011;46341;51.290;-2.474;2023-05-10T09:18:50;15.47;;;6.37;;
60492;SDS011;46341;51.290;-2.474;2023-05-10T09:21:18;12.02;;;4.95;;
60492;SDS011;46341;51.290;-2.474;2023-05-10T09:23:45;16.25;;;5.45;;
60492;SDS011;46341;51.290;-2.474;2023-05-10T09:26:14;14.00;;;4.95;;
60492;SDS011;46341;51.290;-2.474;2023-05-10T09:28:50;12.18;;;3.83;;
60492;SDS011;46341;51.290;-2.474;2023-05-10T09:31:16;13.50;;;3.90;;
60492;SDS011;46341;51.290;-2.474;2023-05-10T09:33:44;17.70;;;5.85;;
60492;SDS011;46341;51.290;-2.474;2023-05-10T09:36:11;24.83;;;9.25;;
60492;SDS011;46341;51.290;-2.474;2023-05-10T09:38:51;11.68;;;3.47;;
60492;SDS011;46341;51.290;-2.474;2023-05-10T09:41:21;25.95;;;12.15;;
60492;SDS011;46341;51.290;-2.474;2023-05-10T09:43:48;15.10;;;7.47;;
60492;SDS011;46341;51.290;-2.474;2023-05-10T09:46:15;12.73;;;6.53;;
60492;SDS011;46341;51.290;-2.474;2023-05-10T09:48:42;12.38;;;5.63;;
60492;SDS011;46341;51.290;-2.474;2023-05-10T09:51:09;11.80;;;3.63;;
60492;SDS011;46341;51.290;-2.474;2023-05-10T09:53:35;19.63;;;9.15;;
60492;SDS011;46341;51.290;-2.474;2023-05-10T09:56:02;24.57;;;11.97;;
60492;SDS011;46341;51.290;-2.474;2023-05-10T09:58:28;17.02;;;7.90;;
60492;SDS011;46341;51.290;-2.474;2023-05-10T10:00:55;15.82;;;6.05;;
60492;SDS011;46341;51.290;-2.474;2023-05-10T10:03:22;16.90;;;8.52;;
60492;SDS011;46341;51.290;-2.474;2023-05-10T10:05:50;15.40;;;4.53;;
60492;SDS011;46341;51.290;-2.474;2023-05-10T10:11:12;15.77;;;6.47;;
60492;SDS011;46341;51.290;-2.474;2023-05-10T10:13:39;10.17;;;3.60;;
60492;SDS011;46341;51.290;-2.474;2023-05-10T10:19:28;10.23;;;3.85;;
60492;SDS011;46341;51.290;-2.474;2023-05-10T10:21:54;10.02;;;3.58;;
60492;SDS011;46341;51.290;-2.474;2023-05-10T10:24:21;9.75;;;2.90;;
60492;SDS011;46341;51.290;-2.474;2023-05-10T10:26:47;6.73;;;1.93;;
60492;SDS011;46341;51.290;-2.474;2023-05-10T10:29:20;7.32;;;2.65;;
60492;SDS011;46341;51.290;-2.474;2023-05-10T10:34:28;6.18;;;2.10;;
60492;SDS011;46341;51.290;-2.474;2023-05-10T10:40:28;7.68;;;1.80;;
60492;SDS011;46341;51.290;-2.474;2023-05-10T10:42:57;6.03;;;1.75;;
60492;SDS011;46341;51.290;-2.474;2023-05-10T10:45:24;6.97;;;2.28;;
60492;SDS011;46341;51.290;-2.474;2023-05-10T10:50:45;9.55;;;2.10;;
60492;SDS011;46341;51.290;-2.474;2023-05-10T11:03:36;12.00;;;2.40;;
60492;SDS011;46341;51.290;-2.474;2023-05-10T11:06:02;10.27;;;1.93;;
60492;SDS011;46341;51.290;-2.474;2023-05-10T11:08:30;8.77;;;1.97;;
60492;SDS011;46341;51.290;-2.474;2023-05-10T11:13:47;8.70;;;2.30;;
60492;SDS011;46341;51.290;-2.474;2023-05-10T11:16:23;9.40;;;1.80;;
60492;SDS011;46341;51.290;-2.474;2023-05-10T11:21:20;7.88;;;1.75;;
60492;SDS011;46341;51.290;-2.474;2023-05-10T11:26:13;9.03;;;2.20;;
60492;SDS011;46341;51.290;-2.474;2023-05-10T11:28:43;8.05;;;1.90;;
60492;SDS011;46341;51.290;-2.474;2023-05-10T11:31:10;8.95;;;2.15;;
60492;SDS011;46341;51.290;-2.474;2023-05-10T11:33:43;11.05;;;2.05;;
60492;SDS011;46341;51.290;-2.474;2023-05-10T11:36:16;8.35;;;2.42;;
60492;SDS011;46341;51.290;-2.474;2023-05-10T11:38:43;9.23;;;2.05;;
60492;SDS011;46341;51.290;-2.474;2023-05-10T11:41:10;7.25;;;1.80;;
60492;SDS011;46341;51.290;-2.474;2023-05-10T11:43:40;6.28;;;1.60;;
60492;SDS011;46341;51.290;-2.474;2023-05-10T11:46:10;7.75;;;1.67;;
60492;SDS011;46341;51.290;-2.474;2023-05-10T11:48:41;5.68;;;1.67;;
60492;SDS011;46341;51.290;-2.474;2023-05-10T11:51:07;8.07;;;1.90;;
60492;SDS011;46341;51.290;-2.474;2023-05-10T11:53:34;5.07;;;1.63;;
60492;SDS011;46341;51.290;-2.474;2023-05-10T11:56:07;6.35;;;1.58;;
60492;SDS011;46341;51.290;-2.474;2023-05-10T11:58:34;5.63;;;1.75;;
60492;SDS011;46341;51.290;-2.474;2023-05-10T12:01:01;6.13;;;1.42;;
60492;SDS011;46341;51.290;-2.474;2023-05-10T12:05:57;5.68;;;1.60;;
60492;SDS011;46341;51.290;-2.474;2023-05-10T12:08:25;7.57;;;1.65;;
60492;SDS011;46341;51.290;-2.474;2023-05-10T12:10:52;5.55;;;1.42;;
60492;SDS011;46341;51.290;-2.474;2023-05-10T12:13:20;5.43;;;1.40;;
60492;SDS011;46341;51.290;-2.474;2023-05-10T12:15:47;5.68;;;1.38;;
60492;SDS011;46341;51.290;-2.474;2023-05-10T12:18:14;4.93;;;1.50;;
60492;SDS011;46341;51.290;-2.474;2023-05-10T12:20:41;6.38;;;1.58;;
60492;SDS011;46341;51.290;-2.474;2023-05-10T12:23:08;2.75;;;0.90;;
60492;SDS011;46341;51.290;-2.474;2023-05-10T12:25:35;4.18;;;1.23;;
60492;SDS011;46341;51.290;-2.474;2023-05-10T12:28:03;4.03;;;1.23;;
60492;SDS011;46341;51.290;-2.474;2023-05-10T12:30:30;4.68;;;0.93;;
60492;SDS011;46341;51.290;-2.474;2023-05-10T12:33:09;2.47;;;0.63;;
60492;SDS011;46341;51.290;-2.474;2023-05-10T12:35:46;3.53;;;0.75;;
60492;SDS011;46341;51.290;-2.474;2023-05-10T12:40:39;3.80;;;1.40;;
60492;SDS011;46341;51.290;-2.474;2023-05-10T12:43:06;2.88;;;1.15;;
60492;SDS011;46341;51.290;-2.474;2023-05-10T12:45:32;3.58;;;1.23;;
60492;SDS011;46341;51.290;-2.474;2023-05-10T12:47:59;4.28;;;0.65;;
60492;SDS011;46341;51.290;-2.474;2023-05-10T12:50:25;3.80;;;0.82;;
60492;SDS011;46341;51.290;-2.474;2023-05-10T12:52:51;3.15;;;0.70;;
60492;SDS011;46341;51.290;-2.474;2023-05-10T12:57:44;3.50;;;1.10;;
60492;SDS011;46341;51.290;-2.474;2023-05-10T13:00:10;1.60;;;0.50;;
60492;SDS011;46341;51.290;-2.474;2023-05-10T13:02:37;2.28;;;0.60;;
60492;SDS011;46341;51.290;-2.474;2023-05-10T13:05:04;1.85;;;0.50;;
60492;SDS011;46341;51.290;-2.474;2023-05-10T13:07:31;1.83;;;0.45;;
60492;SDS011;46341;51.290;-2.474;2023-05-10T13:12:24;2.40;;;0.32;;
60492;SDS011;46341;51.290;-2.474;2023-05-10T13:14:50;1.48;;;0.32;;
60492;SDS011;46341;51.290;-2.474;2023-05-10T13:17:17;2.55;;;0.60;;
60492;SDS011;46341;51.290;-2.474;2023-05-10T13:19:43;1.98;;;0.32;;
60492;SDS011;46341;51.290;-2.474;2023-05-10T13:22:10;2.33;;;0.50;;
60492;SDS011;46341;51.290;-2.474;2023-05-10T13:24:36;2.65;;;0.60;;
60492;SDS011;46341;51.290;-2.474;2023-05-10T13:27:02;2.35;;;0.43;;
60492;SDS011;46341;51.290;-2.474;2023-05-10T13:29:29;2.45;;;0.50;;
60492;SDS011;46341;51.290;-2.474;2023-05-10T13:31:55;1.90;;;0.30;;
60492;SDS011;46341;51.290;-2.474;2023-05-10T13:34:22;2.05;;;0.40;;
60492;SDS011;46341;51.290;-2.474;2023-05-10T13:36:48;1.23;;;0.30;;
60492;SDS011;46341;51.290;-2.474;2023-05-10T13:39:15;4.53;;;1.50;;
60492;SDS011;46341;51.290;-2.474;2023-05-10T13:41:41;1.20;;;0.50;;
60492;SDS011;46341;51.290;-2.474;2023-05-10T13:44:07;2.78;;;0.60;;
60492;SDS011;46341;51.290;-2.474;2023-05-10T13:46:34;2.10;;;0.43;;
60492;SDS011;46341;51.290;-2.474;2023-05-10T13:49:00;1.00;;;0.32;;
60492;SDS011;46341;51.290;-2.474;2023-05-10T13:51:27;1.90;;;0.60;;
60492;SDS011;46341;51.290;-2.474;2023-05-10T13:56:19;1.60;;;0.60;;
60492;SDS011;46341;51.290;-2.474;2023-05-10T13:58:46;1.70;;;0.30;;
60492;SDS011;46341;51.290;-2.474;2023-05-10T14:01:13;1.10;;;0.20;;
60492;SDS011;46341;51.290;-2.474;2023-05-10T14:06:07;1.10;;;0.40;;
60492;SDS011;46341;51.290;-2.474;2023-05-10T14:08:34;0.90;;;0.30;;
60492;SDS011;46341;51.290;-2.474;2023-05-10T14:11:01;4.25;;;2.75;;
60492;SDS011;46341;51.290;-2.474;2023-05-10T14:13:27;3.47;;;2.25;;
60492;SDS011;46341;51.290;-2.474;2023-05-10T14:18:20;2.10;;;0.90;;
60492;SDS011;46341;51.290;-2.474;2023-05-10T14:20:47;1.15;;;0.60;;
60492;SDS011;46341;51.290;-2.474;2023-05-10T14:23:13;3.58;;;1.38;;
60492;SDS011;46341;51.290;-2.474;2023-05-10T14:25:40;1.77;;;0.90;;
60492;SDS011;46341;51.290;-2.474;2023-05-10T14:28:06;2.95;;;1.00;;
60492;SDS011;46341;51.290;-2.474;2023-05-10T14:30:33;2.15;;;1.30;;
60492;SDS011;46341;51.290;-2.474;2023-05-10T14:33:02;3.13;;;0.82;;
60492;SDS011;46341;51.290;-2.474;2023-05-10T14:35:29;3.92;;;1.23;;
60492;SDS011;46341;51.290;-2.474;2023-05-10T14:37:57;5.03;;;2.95;;
60492;SDS011;46341;51.290;-2.474;2023-05-10T14:40:23;3.92;;;2.45;;
60492;SDS011;46341;51.290;-2.474;2023-05-10T14:45:18;4.45;;;2.70;;
60492;SDS011;46341;51.290;-2.474;2023-05-10T14:47:44;3.97;;;2.90;;
60492;SDS011;46341;51.290;-2.474;2023-05-10T14:52:46;0.80;;;0.20;;
60492;SDS011;46341;51.290;-2.474;2023-05-10T14:57:39;2.25;;;0.93;;
60492;SDS011;46341;51.290;-2.474;2023-05-10T15:02:32;1.05;;;0.30;;
60492;SDS011;46341;51.290;-2.474;2023-05-10T15:04:59;2.30;;;0.70;;
60492;SDS011;46341;51.290;-2.474;2023-05-10T15:07:26;1.75;;;0.40;;
60492;SDS011;46341;51.290;-2.474;2023-05-10T15:09:52;4.20;;;0.70;;
60492;SDS011;46341;51.290;-2.474;2023-05-10T15:12:20;1.33;;;0.45;;
60492;SDS011;46341;51.290;-2.474;2023-05-10T15:14:46;2.00;;;0.40;;
60492;SDS011;46341;51.290;-2.474;2023-05-10T15:19:39;3.72;;;0.60;;
60492;SDS011;46341;51.290;-2.474;2023-05-10T15:24:31;2.75;;;0.40;;
60492;SDS011;46341;51.290;-2.474;2023-05-10T15:26:58;2.00;;;0.50;;
60492;SDS011;46341;51.290;-2.474;2023-05-10T15:29:24;2.17;;;0.52;;
60492;SDS011;46341;51.290;-2.474;2023-05-10T15:31:51;2.20;;;0.60;;
60492;SDS011;46341;51.290;-2.474;2023-05-10T15:36:44;2.50;;;0.50;;
60492;SDS011;46341;51.290;-2.474;2023-05-10T15:39:11;2.50;;;0.90;;
60492;SDS011;46341;51.290;-2.474;2023-05-10T15:41:38;2.47;;;0.60;;
60492;SDS011;46341;51.290;-2.474;2023-05-10T15:44:04;2.70;;;0.70;;
60492;SDS011;46341;51.290;-2.474;2023-05-10T15:46:30;1.65;;;0.73;;
60492;SDS011;46341;51.290;-2.474;2023-05-10T15:48:57;2.17;;;0.60;;